sensor_id;sensor_type;location;lat;lon;timestamp;pressure;altitude;pressure_sealevel;temperature;humidity
75936;BME280;64614;32.062;34.834;2023-05-07T00:02:25;100672.72;;;25.90;49.04
75936;BME280;64614;32.062;34.834;2023-05-07T00:04:50;100678.22;;;25.90;48.97
75936;BME280;64614;32.062;34.834;2023-05-07T00:07:17;100675.47;;;25.90;48.85
75936;BME280;64614;32.062;34.834;2023-05-07T00:09:43;100686.78;;;25.88;49.25
75936;BME280;64614;32.062;34.834;2023-05-07T00:12:08;100689.53;;;25.88;49.23
75936;BME280;64614;32.062;34.834;2023-05-07T00:14:34;100691.16;;;25.89;49.27
75936;BME280;64614;32.062;34.834;2023-05-07T00:17:01;100686.78;;;25.88;49.40
75936;BME280;64614;32.062;34.834;2023-05-07T00:19:27;100686.78;;;25.88;49.01
75936;BME280;64614;32.062;34.834;2023-05-07T00:21:53;100683.56;;;25.86;49.26
75936;BME280;64614;32.062;34.834;2023-05-07T00:24:19;100689.53;;;25.88;48.96
75936;BME280;64614;32.062;34.834;2023-05-07T00:26:45;100683.56;;;25.86;49.23
75936;BME280;64614;32.062;34.834;2023-05-07T00:29:11;100670.28;;;25.88;49.26
75936;BME280;64614;32.062;34.834;2023-05-07T00:31:36;100675.31;;;25.86;49.33
75936;BME280;64614;32.062;34.834;2023-05-07T00:34:02;100681.97;;;25.85;49.32
75936;BME280;64614;32.062;34.834;2023-05-07T00:36:28;100682.75;;;25.86;49.27
75936;BME280;64614;32.062;34.834;2023-05-07T00:38:56;100685.84;;;25.84;49.25
75936;BME280;64614;32.062;34.834;2023-05-07T00:41:25;100690.22;;;25.85;49.45
75936;BME280;64614;32.062;34.834;2023-05-07T00:43:51;100696.84;;;25.84;49.62
75936;BME280;64614;32.062;34.834;2023-05-07T00:46:17;100689.38;;;25.85;49.09
75936;BME280;64614;32.062;34.834;2023-05-07T00:48:45;100692.47;;;25.83;49.35
75936;BME280;64614;32.062;34.834;2023-05-07T00:51:11;100686.50;;;25.81;49.37
75936;BME280;64614;32.062;34.834;2023-05-07T00:53:37;100684.22;;;25.83;49.26
75936;BME280;64614;32.062;34.834;2023-05-07T00:56:04;100679.88;;;25.82;49.43
75936;BME280;64614;32.062;34.834;2023-05-07T00:58:32;100681.00;;;25.81;49.51
75936;BME280;64614;32.062;34.834;2023-05-07T01:00:58;100675.50;;;25.81;49.46
75936;BME280;64614;32.062;34.834;2023-05-07T01:03:25;100677.47;;;25.80;49.21
75936;BME280;64614;32.062;34.834;2023-05-07T01:05:52;100680.53;;;25.79;49.70
75936;BME280;64614;32.062;34.834;2023-05-07T01:08:20;100673.09;;;25.79;49.45
75936;BME280;64614;32.062;34.834;2023-05-07T01:10:46;100664.84;;;25.79;49.44
75936;BME280;64614;32.062;34.834;2023-05-07T01:13:12;100664.84;;;25.79;49.70
75936;BME280;64614;32.062;34.834;2023-05-07T01:15:40;100670.69;;;25.78;49.63
75936;BME280;64614;32.062;34.834;2023-05-07T01:18:07;100663.56;;;25.77;49.29
75936;BME280;64614;32.062;34.834;2023-05-07T01:20:33;100663.56;;;25.77;49.16
75936;BME280;64614;32.062;34.834;2023-05-07T01:23:00;100670.19;;;25.76;49.56
75936;BME280;64614;32.062;34.834;2023-05-07T01:25:26;100674.56;;;25.77;49.23
75936;BME280;64614;32.062;34.834;2023-05-07T01:27:52;100665.50;;;25.76;49.52
75936;BME280;64614;32.062;34.834;2023-05-07T01:30:18;100674.88;;;25.75;49.76
75936;BME280;64614;32.062;34.834;2023-05-07T01:35:13;100669.38;;;25.75;49.43
75936;BME280;64614;32.062;34.834;2023-05-07T01:37:42;100671.34;;;25.75;49.46
75936;BME280;64614;32.062;34.834;2023-05-07T01:40:08;100676.34;;;25.73;49.63
75936;BME280;64614;32.062;34.834;2023-05-07T01:42:35;100679.94;;;25.73;49.18
75936;BME280;64614;32.062;34.834;2023-05-07T01:45:01;100679.59;;;25.75;49.63
75936;BME280;64614;32.062;34.834;2023-05-07T01:47:29;100679.59;;;25.75;49.49
75936;BME280;64614;32.062;34.834;2023-05-07T01:49:55;100681.88;;;25.73;49.67
75936;BME280;64614;32.062;34.834;2023-05-07T01:52:21;100686.22;;;25.74;49.67
75936;BME280;64614;32.062;34.834;2023-05-07T01:54:47;100686.22;;;25.74;49.61
75936;BME280;64614;32.062;34.834;2023-05-07T01:57:12;100682.34;;;25.75;49.39
75936;BME280;64614;32.062;34.834;2023-05-07T01:59:38;100682.34;;;25.75;49.65
75936;BME280;64614;32.062;34.834;2023-05-07T02:02:04;100685.88;;;25.75;49.68
75936;BME280;64614;32.062;34.834;2023-05-07T02:04:29;100682.69;;;25.73;49.58
75936;BME280;64614;32.062;34.834;2023-05-07T02:06:56;100684.28;;;25.74;49.68
75936;BME280;64614;32.062;34.834;2023-05-07T02:09:22;100692.53;;;25.74;49.61
75936;BME280;64614;32.062;34.834;2023-05-07T02:11:48;100688.97;;;25.74;49.71
75936;BME280;64614;32.062;34.834;2023-05-07T02:14:14;100690.94;;;25.73;49.64
75936;BME280;64614;32.062;34.834;2023-05-07T02:16:41;100698.84;;;25.75;49.72
75936;BME280;64614;32.062;34.834;2023-05-07T02:19:07;100701.59;;;25.75;49.83
75936;BME280;64614;32.062;34.834;2023-05-07T02:21:32;100692.88;;;25.73;49.78
75936;BME280;64614;32.062;34.834;2023-05-07T02:23:58;100692.88;;;25.73;49.72
75936;BME280;64614;32.062;34.834;2023-05-07T02:26:23;100692.88;;;25.73;49.87
75936;BME280;64614;32.062;34.834;2023-05-07T02:28:49;100694.81;;;25.72;50.02
75936;BME280;64614;32.062;34.834;2023-05-07T02:31:16;100692.06;;;25.72;49.72
75936;BME280;64614;32.062;34.834;2023-05-07T02:33:41;100694.00;;;25.72;49.81
75936;BME280;64614;32.062;34.834;2023-05-07T02:36:11;100702.25;;;25.72;49.81
75936;BME280;64614;32.062;34.834;2023-05-07T02:38:37;100710.03;;;25.70;49.84
75936;BME280;64614;32.062;34.834;2023-05-07T02:41:02;100712.78;;;25.70;49.81
75936;BME280;64614;32.062;34.834;2023-05-07T02:43:28;100717.47;;;25.69;49.76
75936;BME280;64614;32.062;34.834;2023-05-07T02:46:07;100714.72;;;25.69;49.59
75936;BME280;64614;32.062;34.834;2023-05-07T02:48:34;100726.06;;;25.68;49.67
75936;BME280;64614;32.062;34.834;2023-05-07T02:51:01;100729.97;;;25.67;49.75
75936;BME280;64614;32.062;34.834;2023-05-07T02:53:27;100731.09;;;25.65;49.54
75936;BME280;64614;32.062;34.834;2023-05-07T02:55:56;100736.59;;;25.65;49.69
75936;BME280;64614;32.062;34.834;2023-05-07T02:58:22;100743.22;;;25.64;49.55
75936;BME280;64614;32.062;34.834;2023-05-07T03:00:47;100755.50;;;25.67;49.53
75936;BME280;64614;32.062;34.834;2023-05-07T03:03:13;100759.72;;;25.64;49.55
75936;BME280;64614;32.062;34.834;2023-05-07T03:05:40;100765.72;;;25.67;49.87
75936;BME280;64614;32.062;34.834;2023-05-07T03:08:06;100776.22;;;25.64;49.57
75936;BME280;64614;32.062;34.834;2023-05-07T03:10:32;100768.63;;;25.61;49.86
75936;BME280;64614;32.062;34.834;2023-05-07T03:12:57;100773.47;;;25.64;49.60
75936;BME280;64614;32.062;34.834;2023-05-07T03:15:23;100776.22;;;25.64;49.64
75936;BME280;64614;32.062;34.834;2023-05-07T03:17:49;100779.47;;;25.67;49.39
75936;BME280;64614;32.062;34.834;2023-05-07T03:20:14;100783.34;;;25.65;50.06
75936;BME280;64614;32.062;34.834;2023-05-07T03:22:40;100785.75;;;25.67;49.54
75936;BME280;64614;32.062;34.834;2023-05-07T03:25:06;100784.47;;;25.64;49.73
75936;BME280;64614;32.062;34.834;2023-05-07T03:27:32;100786.75;;;25.62;49.81
75936;BME280;64614;32.062;34.834;2023-05-07T03:29:59;100790.97;;;25.60;49.89
75936;BME280;64614;32.062;34.834;2023-05-07T03:32:25;100788.06;;;25.56;49.95
75936;BME280;64614;32.062;34.834;2023-05-07T03:34:51;100791.47;;;25.53;49.77
75936;BME280;64614;32.062;34.834;2023-05-07T03:37:16;100785.53;;;25.42;49.87
75936;BME280;64614;32.062;34.834;2023-05-07T03:39:42;100791.19;;;25.37;49.71
75936;BME280;64614;32.062;34.834;2023-05-07T03:42:08;100795.38;;;25.34;49.83
75936;BME280;64614;32.062;34.834;2023-05-07T03:44:33;100799.94;;;25.30;49.60
75936;BME280;64614;32.062;34.834;2023-05-07T03:46:59;100807.69;;;25.28;50.00
75936;BME280;64614;32.062;34.834;2023-05-07T03:49:25;100802.84;;;25.25;49.80
75936;BME280;64614;32.062;34.834;2023-05-07T03:51:53;100805.91;;;25.24;49.86
75936;BME280;64614;32.062;34.834;2023-05-07T03:54:19;100812.38;;;25.28;49.49
75936;BME280;64614;32.062;34.834;2023-05-07T03:56:45;100807.53;;;25.25;49.64
75936;BME280;64614;32.062;34.834;2023-05-07T03:59:12;100809.34;;;25.21;49.56
75936;BME280;64614;32.062;34.834;2023-05-07T04:01:38;100820.63;;;25.19;49.37
75936;BME280;64614;32.062;34.834;2023-05-07T04:04:04;100820.16;;;25.17;49.43
75936;BME280;64614;32.062;34.834;2023-05-07T04:06:30;100821.94;;;25.13;49.38
75936;BME280;64614;32.062;34.834;2023-05-07T04:08:56;100820.31;;;25.12;49.30
75936;BME280;64614;32.062;34.834;2023-05-07T04:11:22;100820.50;;;25.07;49.44
75936;BME280;64614;32.062;34.834;2023-05-07T04:13:47;100823.41;;;25.01;49.37
75936;BME280;64614;32.062;34.834;2023-05-07T04:16:13;100819.03;;;25.00;49.36
75936;BME280;64614;32.062;34.834;2023-05-07T04:18:39;100817.25;;;24.96;49.22
75936;BME280;64614;32.062;34.834;2023-05-07T04:21:13;100832.94;;;24.95;49.50
75936;BME280;64614;32.062;34.834;2023-05-07T04:23:39;100835.22;;;24.93;49.32
75936;BME280;64614;32.062;34.834;2023-05-07T04:26:05;100831.66;;;24.93;49.13
75936;BME280;64614;32.062;34.834;2023-05-07T04:28:30;100820.81;;;24.87;49.36
75936;BME280;64614;32.062;34.834;2023-05-07T04:30:56;100829.41;;;24.86;49.27
75936;BME280;64614;32.062;34.834;2023-05-07T04:33:21;100830.53;;;24.85;49.40
75936;BME280;64614;32.062;34.834;2023-05-07T04:35:47;100833.59;;;24.83;49.15
75936;BME280;64614;32.062;34.834;2023-05-07T04:38:13;100836.66;;;24.82;49.15
75936;BME280;64614;32.062;34.834;2023-05-07T04:40:39;100842.16;;;24.82;49.16
75936;BME280;64614;32.062;34.834;2023-05-07T04:43:04;100839.25;;;24.78;49.01
75936;BME280;64614;32.062;34.834;2023-05-07T04:45:30;100841.53;;;24.76;49.12
75936;BME280;64614;32.062;34.834;2023-05-07T04:47:56;100846.53;;;24.74;49.25
75936;BME280;64614;32.062;34.834;2023-05-07T04:50:21;100844.56;;;24.75;49.06
75936;BME280;64614;32.062;34.834;2023-05-07T04:52:55;100837.63;;;24.68;49.18
75936;BME280;64614;32.062;34.834;2023-05-07T04:55:21;100865.25;;;24.72;49.36
75936;BME280;64614;32.062;34.834;2023-05-07T05:00:22;100860.09;;;24.70;48.95
75936;BME280;64614;32.062;34.834;2023-05-07T05:02:48;100860.09;;;24.70;49.13
75936;BME280;64614;32.062;34.834;2023-05-07T05:05:13;100863.97;;;24.69;49.18
75936;BME280;64614;32.062;34.834;2023-05-07T05:07:39;100867.03;;;24.68;49.21
75936;BME280;64614;32.062;34.834;2023-05-07T05:10:05;100864.56;;;24.66;48.94
75936;BME280;64614;32.062;34.834;2023-05-07T05:12:31;100865.22;;;24.63;49.29
75936;BME280;64614;32.062;34.834;2023-05-07T05:14:57;100866.81;;;24.64;49.38
75936;BME280;64614;32.062;34.834;2023-05-07T05:17:23;100864.72;;;24.61;49.25
75936;BME280;64614;32.062;34.834;2023-05-07T05:19:49;100874.09;;;24.60;49.09
75936;BME280;64614;32.062;34.834;2023-05-07T05:22:15;100879.59;;;24.60;49.18
75936;BME280;64614;32.062;34.834;2023-05-07T05:24:40;100875.22;;;24.59;49.37
75936;BME280;64614;32.062;34.834;2023-05-07T05:29:48;100868.06;;;24.40;51.21
75936;BME280;64614;32.062;34.834;2023-05-07T05:32:13;100875.13;;;24.24;51.43
75936;BME280;64614;32.062;34.834;2023-05-07T05:37:14;100894.13;;;24.12;50.82
75936;BME280;64614;32.062;34.834;2023-05-07T05:39:40;100886.72;;;24.12;50.50
75936;BME280;64614;32.062;34.834;2023-05-07T05:42:06;100899.59;;;24.12;50.46
75936;BME280;64614;32.062;34.834;2023-05-07T05:44:35;100898.00;;;24.11;50.43
75936;BME280;64614;32.062;34.834;2023-05-07T05:47:00;100909.81;;;24.20;50.12
75936;BME280;64614;32.062;34.834;2023-05-07T05:49:26;100901.56;;;24.20;50.15
75936;BME280;64614;32.062;34.834;2023-05-07T05:51:52;100912.09;;;24.27;50.08
75936;BME280;64614;32.062;34.834;2023-05-07T05:54:17;100908.22;;;24.28;50.21
75936;BME280;64614;32.062;34.834;2023-05-07T05:56:43;100900.81;;;24.28;49.66
75936;BME280;64614;32.062;34.834;2023-05-07T05:59:10;100908.56;;;24.26;49.88
75936;BME280;64614;32.062;34.834;2023-05-07T06:01:35;100907.59;;;24.31;49.99
75936;BME280;64614;32.062;34.834;2023-05-07T06:04:01;100918.75;;;24.34;50.01
75936;BME280;64614;32.062;34.834;2023-05-07T06:06:27;100912.00;;;24.40;49.89
75936;BME280;64614;32.062;34.834;2023-05-07T06:08:52;100917.16;;;24.42;49.74
75936;BME280;64614;32.062;34.834;2023-05-07T06:11:18;100922.00;;;24.45;49.92
75936;BME280;64614;32.062;34.834;2023-05-07T06:13:43;100923.31;;;24.48;49.86
75936;BME280;64614;32.062;34.834;2023-05-07T06:16:09;100921.06;;;24.50;49.75
75936;BME280;64614;32.062;34.834;2023-05-07T06:18:35;100935.28;;;24.52;49.75
75936;BME280;64614;32.062;34.834;2023-05-07T06:21:03;100925.94;;;24.53;49.69
75936;BME280;64614;32.062;34.834;2023-05-07T06:23:29;100931.59;;;24.56;50.00
75936;BME280;64614;32.062;34.834;2023-05-07T06:25:55;100942.25;;;24.58;49.87
75936;BME280;64614;32.062;34.834;2023-05-07T06:28:22;100936.13;;;24.61;49.83
75936;BME280;64614;32.062;34.834;2023-05-07T06:30:48;100942.13;;;24.63;49.80
75936;BME280;64614;32.062;34.834;2023-05-07T06:33:15;100937.09;;;24.65;49.81
75936;BME280;64614;32.062;34.834;2023-05-07T06:35:41;100960.09;;;24.69;50.09
75936;BME280;64614;32.062;34.834;2023-05-07T06:38:07;100951.50;;;24.71;49.89
75936;BME280;64614;32.062;34.834;2023-05-07T06:40:32;100945.72;;;24.73;49.87
75936;BME280;64614;32.062;34.834;2023-05-07T06:42:58;100935.19;;;24.75;49.76
75936;BME280;64614;32.062;34.834;2023-05-07T06:45:24;100948.31;;;24.78;50.13
75936;BME280;64614;32.062;34.834;2023-05-07T06:47:50;100951.38;;;24.85;49.68
75936;BME280;64614;32.062;34.834;2023-05-07T06:50:17;100954.63;;;24.87;49.83
75936;BME280;64614;32.062;34.834;2023-05-07T06:52:43;100961.75;;;24.88;49.71
75936;BME280;64614;32.062;34.834;2023-05-07T06:55:09;100954.00;;;24.90;49.51
75936;BME280;64614;32.062;34.834;2023-05-07T06:57:34;100955.13;;;24.89;49.72
75936;BME280;64614;32.062;34.834;2023-05-07T07:00:00;100957.53;;;24.91;49.63
75936;BME280;64614;32.062;34.834;2023-05-07T07:02:26;100966.28;;;24.93;49.79
75936;BME280;64614;32.062;34.834;2023-05-07T07:04:53;100955.28;;;24.93;49.75
75936;BME280;64614;32.062;34.834;2023-05-07T07:07:18;100958.84;;;24.93;49.63
75936;BME280;64614;32.062;34.834;2023-05-07T07:09:44;100966.44;;;24.96;49.76
75936;BME280;64614;32.062;34.834;2023-05-07T07:12:09;100963.38;;;24.98;49.76
75936;BME280;64614;32.062;34.834;2023-05-07T07:14:35;100963.38;;;24.98;49.67
75936;BME280;64614;32.062;34.834;2023-05-07T07:17:01;100964.19;;;24.98;49.82
75936;BME280;64614;32.062;34.834;2023-05-07T07:19:26;100974.53;;;25.01;49.82
75936;BME280;64614;32.062;34.834;2023-05-07T07:21:52;100964.03;;;25.03;49.72
75936;BME280;64614;32.062;34.834;2023-05-07T07:24:18;100963.69;;;25.05;49.78
75936;BME280;64614;32.062;34.834;2023-05-07T07:26:46;100971.31;;;25.08;49.36
75936;BME280;64614;32.062;34.834;2023-05-07T07:29:12;100963.56;;;25.10;49.74
75936;BME280;64614;32.062;34.834;2023-05-07T07:31:38;100963.22;;;25.12;49.61
75936;BME280;64614;32.062;34.834;2023-05-07T07:34:04;100956.59;;;25.13;49.84
75936;BME280;64614;32.062;34.834;2023-05-07T07:36:30;100964.22;;;25.16;50.02
75936;BME280;64614;32.062;34.834;2023-05-07T07:38:55;100955.63;;;25.17;49.56
75936;BME280;64614;32.062;34.834;2023-05-07T07:41:21;100964.38;;;25.19;49.64
75936;BME280;64614;32.062;34.834;2023-05-07T07:43:46;100958.22;;;25.23;49.68
75936;BME280;64614;32.062;34.834;2023-05-07T07:46:12;100975.19;;;25.25;49.91
75936;BME280;64614;32.062;34.834;2023-05-07T07:48:38;100967.78;;;25.25;49.56
75936;BME280;64614;32.062;34.834;2023-05-07T07:51:04;100968.56;;;25.26;49.62
75936;BME280;64614;32.062;34.834;2023-05-07T07:53:30;100977.63;;;25.26;49.73
75936;BME280;64614;32.062;34.834;2023-05-07T07:55:55;100976.19;;;25.29;49.58
75936;BME280;64614;32.062;34.834;2023-05-07T07:58:21;100978.09;;;25.28;49.57
75936;BME280;64614;32.062;34.834;2023-05-07T08:00:47;100972.63;;;25.28;49.69
75936;BME280;64614;32.062;34.834;2023-05-07T08:03:14;100972.63;;;25.28;49.73
75936;BME280;64614;32.062;34.834;2023-05-07T08:05:42;100971.00;;;25.27;49.68
75936;BME280;64614;32.062;34.834;2023-05-07T08:08:07;100982.94;;;25.23;49.39
75936;BME280;64614;32.062;34.834;2023-05-07T08:10:33;100981.81;;;25.24;49.14
75936;BME280;64614;32.062;34.834;2023-05-07T08:13:00;100981.03;;;25.23;49.37
75936;BME280;64614;32.062;34.834;2023-05-07T08:15:26;100974.72;;;25.23;49.50
75936;BME280;64614;32.062;34.834;2023-05-07T08:17:51;100973.56;;;25.24;49.48
75936;BME280;64614;32.062;34.834;2023-05-07T08:20:17;100986.53;;;25.23;49.24
75936;BME280;64614;32.062;34.834;2023-05-07T08:22:43;100979.91;;;25.24;49.44
75936;BME280;64614;32.062;34.834;2023-05-07T08:25:08;100983.78;;;25.23;49.41
75936;BME280;64614;32.062;34.834;2023-05-07T08:27:35;100978.78;;;25.25;49.37
75936;BME280;64614;32.062;34.834;2023-05-07T08:30:02;100983.94;;;25.27;49.53
75936;BME280;64614;32.062;34.834;2023-05-07T08:32:27;100984.44;;;25.29;49.34
75936;BME280;64614;32.062;34.834;2023-05-07T08:34:53;100982.47;;;25.29;49.26
75936;BME280;64614;32.062;34.834;2023-05-07T08:37:19;100974.22;;;25.29;49.33
75936;BME280;64614;32.062;34.834;2023-05-07T08:39:44;100981.34;;;25.30;49.27
75936;BME280;64614;32.062;34.834;2023-05-07T08:42:11;100988.47;;;25.31;49.27
75936;BME280;64614;32.062;34.834;2023-05-07T08:44:38;100990.88;;;25.33;49.32
75936;BME280;64614;32.062;34.834;2023-05-07T08:47:07;100997.69;;;25.35;49.15
75936;BME280;64614;32.062;34.834;2023-05-07T08:49:33;101001.25;;;25.36;49.15
75936;BME280;64614;32.062;34.834;2023-05-07T08:51:59;101002.88;;;25.37;49.27
75936;BME280;64614;32.062;34.834;2023-05-07T08:54:26;100997.38;;;25.37;49.31
75936;BME280;64614;32.062;34.834;2023-05-07T08:56:53;100993.50;;;25.38;49.43
75936;BME280;64614;32.062;34.834;2023-05-07T08:59:18;100995.94;;;25.40;49.33
75936;BME280;64614;32.062;34.834;2023-05-07T09:01:44;101001.44;;;25.40;49.13
75936;BME280;64614;32.062;34.834;2023-05-07T09:04:10;100999.63;;;25.35;49.25
75936;BME280;64614;32.062;34.834;2023-05-07T09:06:35;100994.94;;;25.35;49.70
75936;BME280;64614;32.062;34.834;2023-05-07T09:09:03;100987.81;;;25.34;49.36
75936;BME280;64614;32.062;34.834;2023-05-07T09:11:30;100991.06;;;25.37;49.58
75936;BME280;64614;32.062;34.834;2023-05-07T09:13:57;100992.66;;;25.38;49.42
75936;BME280;64614;32.062;34.834;2023-05-07T09:16:30;100982.63;;;25.33;49.47
75936;BME280;64614;32.062;34.834;2023-05-07T09:24:01;100989.47;;;25.53;49.42
75936;BME280;64614;32.062;34.834;2023-05-07T09:26:27;100984.47;;;25.46;49.46
75936;BME280;64614;32.062;34.834;2023-05-07T09:29:02;100987.53;;;25.54;49.40
75936;BME280;64614;32.062;34.834;2023-05-07T09:31:28;100980.09;;;25.54;49.11
75936;BME280;64614;32.062;34.834;2023-05-07T09:33:53;100977.81;;;25.56;49.23
75936;BME280;64614;32.062;34.834;2023-05-07T09:36:21;100972.31;;;25.56;49.70
75936;BME280;64614;32.062;34.834;2023-05-07T09:38:46;100976.19;;;25.55;49.64
75936;BME280;64614;32.062;34.834;2023-05-07T09:41:13;100974.28;;;25.56;49.94
75936;BME280;64614;32.062;34.834;2023-05-07T09:43:39;100978.94;;;25.55;49.87
75936;BME280;64614;32.062;34.834;2023-05-07T09:46:12;100981.69;;;25.55;50.24
75936;BME280;64614;32.062;34.834;2023-05-07T09:48:40;100978.94;;;25.55;50.17
75936;BME280;64614;32.062;34.834;2023-05-07T09:51:25;100970.69;;;25.55;49.80
75936;BME280;64614;32.062;34.834;2023-05-07T09:53:54;100977.03;;;25.56;49.85
75936;BME280;64614;32.062;34.834;2023-05-07T09:56:20;100977.03;;;25.56;49.86
75936;BME280;64614;32.062;34.834;2023-05-07T09:58:46;100978.63;;;25.57;49.96
75936;BME280;64614;32.062;34.834;2023-05-07T10:01:12;100973.13;;;25.57;49.96
75936;BME280;64614;32.062;34.834;2023-05-07T10:03:42;100984.94;;;25.57;49.91
75936;BME280;64614;32.062;34.834;2023-05-07T10:06:09;100976.19;;;25.55;50.41
75936;BME280;64614;32.062;34.834;2023-05-07T10:08:36;100973.44;;;25.55;50.27
75936;BME280;64614;32.062;34.834;2023-05-07T10:11:04;100973.94;;;25.57;50.18
75936;BME280;64614;32.062;34.834;2023-05-07T10:13:31;100967.63;;;25.57;49.81
75936;BME280;64614;32.062;34.834;2023-05-07T10:15:57;100965.69;;;25.57;50.20
75936;BME280;64614;32.062;34.834;2023-05-07T10:18:24;100972.81;;;25.58;50.21
75936;BME280;64614;32.062;34.834;2023-05-07T10:21:03;100960.69;;;25.59;49.87
75936;BME280;64614;32.062;34.834;2023-05-07T10:23:31;100960.69;;;25.59;49.92
75936;BME280;64614;32.062;34.834;2023-05-07T10:25:57;100966.97;;;25.60;50.07
75936;BME280;64614;32.062;34.834;2023-05-07T10:28:25;100966.19;;;25.59;49.88
75936;BME280;64614;32.062;34.834;2023-05-07T10:31:11;100967.81;;;25.60;50.08
75936;BME280;64614;32.062;34.834;2023-05-07T10:33:42;100966.97;;;25.60;50.08
75936;BME280;64614;32.062;34.834;2023-05-07T10:36:11;100970.56;;;25.60;50.19
75936;BME280;64614;32.062;34.834;2023-05-07T10:38:37;100970.22;;;25.62;50.14
75936;BME280;64614;32.062;34.834;2023-05-07T10:41:03;100960.00;;;25.62;50.01
75936;BME280;64614;32.062;34.834;2023-05-07T10:43:57;100967.13;;;25.63;50.07
75936;BME280;64614;32.062;34.834;2023-05-07T10:46:22;100975.38;;;25.63;50.23
75936;BME280;64614;32.062;34.834;2023-05-07T10:51:26;100964.38;;;25.63;49.90
75936;BME280;64614;32.062;34.834;2023-05-07T10:56:43;100950.63;;;25.63;50.00
75936;BME280;64614;32.062;34.834;2023-05-07T11:01:56;100950.00;;;25.67;50.01
75936;BME280;64614;32.062;34.834;2023-05-07T11:04:25;100956.28;;;25.67;49.99
75936;BME280;64614;32.062;34.834;2023-05-07T11:07:19;100954.03;;;25.69;49.72
75936;BME280;64614;32.062;34.834;2023-05-07T11:15:34;100950.63;;;25.72;49.68
75936;BME280;64614;32.062;34.834;2023-05-07T11:18:00;100944.31;;;25.72;49.64
75936;BME280;64614;32.062;34.834;2023-05-07T11:20:44;100950.28;;;25.74;49.50
75936;BME280;64614;32.062;34.834;2023-05-07T11:26:06;100944.00;;;25.73;49.73
75936;BME280;64614;32.062;34.834;2023-05-07T11:28:37;100941.56;;;25.72;49.87
75936;BME280;64614;32.062;34.834;2023-05-07T11:31:04;100943.19;;;25.73;49.68
75936;BME280;64614;32.062;34.834;2023-05-07T11:33:30;100953.53;;;25.76;49.27
75936;BME280;64614;32.062;34.834;2023-05-07T11:36:03;100951.56;;;25.76;49.62
75936;BME280;64614;32.062;34.834;2023-05-07T11:38:34;100945.78;;;25.78;49.16
75936;BME280;64614;32.062;34.834;2023-05-07T11:41:00;100948.19;;;25.79;49.63
75936;BME280;64614;32.062;34.834;2023-05-07T11:43:27;100949.81;;;25.80;49.73
75936;BME280;64614;32.062;34.834;2023-05-07T11:46:07;100938.47;;;25.82;49.38
75936;BME280;64614;32.062;34.834;2023-05-07T11:48:34;100946.06;;;25.85;49.62
75936;BME280;64614;32.062;34.834;2023-05-07T11:51:04;100943.00;;;25.87;49.67
75936;BME280;64614;32.062;34.834;2023-05-07T11:53:38;100933.59;;;25.88;49.47
75936;BME280;64614;32.062;34.834;2023-05-07T11:56:12;100928.88;;;25.88;49.66
75936;BME280;64614;32.062;34.834;2023-05-07T11:58:39;100921.81;;;25.87;49.37
75936;BME280;64614;32.062;34.834;2023-05-07T12:01:08;100931.78;;;25.92;49.50
75936;BME280;64614;32.062;34.834;2023-05-07T12:03:39;100931.50;;;25.93;49.51
75936;BME280;64614;32.062;34.834;2023-05-07T12:06:07;100925.66;;;25.95;49.58
75936;BME280;64614;32.062;34.834;2023-05-07T12:08:40;100925.66;;;25.95;49.56
75936;BME280;64614;32.062;34.834;2023-05-07T12:13:34;100929.38;;;25.99;49.60
75936;BME280;64614;32.062;34.834;2023-05-07T12:16:00;100921.13;;;25.99;49.16
75936;BME280;64614;32.062;34.834;2023-05-07T12:18:28;100916.75;;;25.98;49.54
75936;BME280;64614;32.062;34.834;2023-05-07T12:20:55;100915.91;;;25.97;49.49
75936;BME280;64614;32.062;34.834;2023-05-07T12:23:21;100911.25;;;25.98;49.52
75936;BME280;64614;32.062;34.834;2023-05-07T12:25:47;100924.31;;;26.01;49.25
75936;BME280;64614;32.062;34.834;2023-05-07T12:28:17;100923.53;;;26.01;49.53
75936;BME280;64614;32.062;34.834;2023-05-07T12:30:45;100912.84;;;25.99;49.47
75936;BME280;64614;32.062;34.834;2023-05-07T12:33:11;100915.28;;;26.01;49.63
75936;BME280;64614;32.062;34.834;2023-05-07T12:35:42;100924.66;;;26.00;49.30
75936;BME280;64614;32.062;34.834;2023-05-07T12:38:09;100914.47;;;26.00;49.35
75936;BME280;64614;32.062;34.834;2023-05-07T12:40:37;100923.03;;;25.99;49.08
75936;BME280;64614;32.062;34.834;2023-05-07T12:43:03;100920.28;;;25.99;49.15
75936;BME280;64614;32.062;34.834;2023-05-07T12:45:29;100909.97;;;25.95;49.32
75936;BME280;64614;32.062;34.834;2023-05-07T12:47:54;100902.97;;;25.98;49.14
75936;BME280;64614;32.062;34.834;2023-05-07T12:50:20;100908.78;;;25.96;49.24
75936;BME280;64614;32.062;34.834;2023-05-07T12:52:49;100914.31;;;25.96;49.27
75936;BME280;64614;32.062;34.834;2023-05-07T12:55:15;100930.81;;;25.96;48.91
75936;BME280;64614;32.062;34.834;2023-05-07T12:57:42;100918.22;;;25.95;49.10
75936;BME280;64614;32.062;34.834;2023-05-07T13:00:09;100912.72;;;25.95;49.20
75936;BME280;64614;32.062;34.834;2023-05-07T13:02:39;100912.72;;;25.95;48.99
75936;BME280;64614;32.062;34.834;2023-05-07T13:05:05;100920.13;;;25.95;48.98
75936;BME280;64614;32.062;34.834;2023-05-07T13:07:31;100911.09;;;25.94;49.41
75936;BME280;64614;32.062;34.834;2023-05-07T13:09:56;100916.59;;;25.94;49.18
75936;BME280;64614;32.062;34.834;2023-05-07T13:12:22;100921.28;;;25.94;49.16
75936;BME280;64614;32.062;34.834;2023-05-07T13:14:48;100923.22;;;25.93;49.14